Time;durP1;ratioP1;P1;durP2;ratioP2;P2;SDS_P1;SDS_P2;PMS_P1;PMS_P2;Temp;Humidity;BMP_temperature;BMP_pressure;BME280_temperature;BME280_humidity;BME280_pressure;Samples;Min_cycle;Max_cycle;Signal;HPM_P1;HPM_P2
2023/08/16 00:02:39;;;;;;;9.43;8.63;;;;;;;;;;10065813;28;20050;-71
2023/08/16 00:07:34;;;;;;;9.23;8.52;;;;;;;;;;10070887;28;20491;-72
2023/08/16 00:12:26;;;;;;;9.57;8.77;;;;;;;;;;10056372;28;20075;-73
2023/08/16 00:17:18;;;;;;;8.77;8.05;;;;;;;;;;10065169;28;20033;-72
2023/08/16 00:22:09;;;;;;;9.40;8.52;;;;;;;;;;10062918;28;20301;-73
2023/08/16 00:27:03;;;;;;;9.02;8.15;;;;;;;;;;10061789;28;20387;-71
2023/08/16 00:31:57;;;;;;;9.80;8.77;;;;;;;;;;10064656;28;20045;-72
2023/08/16 00:36:51;;;;;;;10.23;8.32;;;;;;;;;;10024664;28;21628;-72
2023/08/16 00:41:43;;;;;;;11.20;9.27;;;;;;;;;;10065682;28;20463;-73
2023/08/16 00:46:34;;;;;;;10.43;9.50;;;;;;;;;;10047634;28;20045;-73
2023/08/16 00:51:26;;;;;;;9.20;8.27;;;;;;;;;;10047640;28;20061;-72
2023/08/16 00:56:19;;;;;;;9.98;9.18;;;;;;;;;;10031531;28;20041;-73
2023/08/16 01:01:11;;;;;;;9.88;8.88;;;;;;;;;;10065220;28;20061;-72
2023/08/16 01:06:04;;;;;;;9.13;7.82;;;;;;;;;;10064261;28;20029;-72
2023/08/16 01:11:00;;;;;;;11.25;10.13;;;;;;;;;;10064584;28;20041;-72
2023/08/16 01:15:52;;;;;;;10.88;9.98;;;;;;;;;;10012390;28;20046;-73
2023/08/16 01:20:47;;;;;;;9.65;8.85;;;;;;;;;;10057029;28;20131;-72
2023/08/16 01:26:08;;;;;;;9.23;8.38;;;;;;;;;;10028683;28;20053;-73
2023/08/16 01:31:04;;;;;;;8.55;7.65;;;;;;;;;;10037926;28;20057;-75
2023/08/16 01:35:56;;;;;;;8.88;8.13;;;;;;;;;;10063487;28;20527;-75
2023/08/16 01:40:59;;;;;;;8.30;7.60;;;;;;;;;;10059959;28;20055;-72
2023/08/16 01:45:52;;;;;;;10.13;8.23;;;;;;;;;;10044660;28;20918;-75
2023/08/16 01:50:44;;;;;;;9.55;8.43;;;;;;;;;;10019234;28;20046;-73
2023/08/16 01:55:36;;;;;;;9.43;8.52;;;;;;;;;;10046918;28;20034;-74
2023/08/16 02:00:28;;;;;;;9.02;8.32;;;;;;;;;;10055135;28;20550;-73
2023/08/16 02:05:20;;;;;;;9.32;8.55;;;;;;;;;;10080094;28;21514;-74
2023/08/16 02:10:12;;;;;;;9.50;8.80;;;;;;;;;;10064344;28;20037;-75
2023/08/16 02:15:04;;;;;;;9.82;9.02;;;;;;;;;;10063067;28;20159;-75
2023/08/16 02:19:56;;;;;;;12.98;11.77;;;;;;;;;;10048261;28;20071;-75
2023/08/16 02:24:49;;;;;;;12.07;10.88;;;;;;;;;;10056550;28;20047;-73
2023/08/16 02:29:41;;;;;;;17.98;14.05;;;;;;;;;;10034617;28;20042;-75
2023/08/16 02:34:33;;;;;;;15.60;10.27;;;;;;;;;;10049418;28;20073;-73
2023/08/16 02:39:25;;;;;;;10.25;9.45;;;;;;;;;;10038806;28;20046;-74
2023/08/16 02:44:17;;;;;;;10.10;9.20;;;;;;;;;;10066179;28;20042;-74
2023/08/16 02:49:09;;;;;;;10.35;9.45;;;;;;;;;;10067673;28;20049;-74
2023/08/16 02:54:01;;;;;;;10.15;9.35;;;;;;;;;;10067739;28;20073;-75
2023/08/16 02:58:54;;;;;;;11.82;10.57;;;;;;;;;;10067140;28;20049;-75
2023/08/16 03:03:46;;;;;;;12.10;11.07;;;;;;;;;;10067343;28;20041;-74
2023/08/16 03:08:38;;;;;;;11.60;10.40;;;;;;;;;;10063956;28;20111;-74
2023/08/16 03:13:30;;;;;;;10.20;9.40;;;;;;;;;;10063175;28;20061;-74
2023/08/16 03:18:22;;;;;;;11.82;10.55;;;;;;;;;;10065844;28;20038;-75
2023/08/16 03:23:14;;;;;;;10.52;9.52;;;;;;;;;;10048810;28;20046;-75
2023/08/16 03:28:06;;;;;;;11.57;10.57;;;;;;;;;;10063819;28;20502;-74
2023/08/16 03:32:58;;;;;;;11.85;10.73;;;;;;;;;;10064544;28;20045;-74
2023/08/16 03:37:50;;;;;;;11.73;10.73;;;;;;;;;;10047196;28;20398;-73
2023/08/16 03:42:42;;;;;;;11.23;10.23;;;;;;;;;;10049096;28;20133;-74
2023/08/16 03:47:34;;;;;;;10.70;9.80;;;;;;;;;;10041681;28;20112;-75
2023/08/16 03:52:26;;;;;;;10.25;9.20;;;;;;;;;;10046291;28;20140;-75
2023/08/16 03:57:18;;;;;;;9.20;8.40;;;;;;;;;;10064644;28;20060;-74
2023/08/16 04:02:10;;;;;;;8.63;7.82;;;;;;;;;;10062885;28;20045;-75
2023/08/16 04:07:02;;;;;;;9.52;8.73;;;;;;;;;;10064510;28;20068;-75
2023/08/16 04:11:54;;;;;;;10.48;9.40;;;;;;;;;;10062188;28;20037;-74
2023/08/16 04:16:46;;;;;;;9.27;8.50;;;;;;;;;;10062396;28;20084;-74
2023/08/16 04:21:39;;;;;;;8.88;7.95;;;;;;;;;;10063563;28;20112;-74
2023/08/16 04:26:31;;;;;;;9.05;8.30;;;;;;;;;;10046924;28;20384;-74
2023/08/16 04:31:23;;;;;;;9.23;8.40;;;;;;;;;;10065589;28;20057;-74
2023/08/16 04:36:16;;;;;;;8.10;7.40;;;;;;;;;;10024833;28;20468;-75
2023/08/16 04:41:08;;;;;;;8.00;7.45;;;;;;;;;;10049222;28;20103;-73
2023/08/16 04:45:59;;;;;;;9.10;8.25;;;;;;;;;;10044902;28;20045;-74
2023/08/16 04:50:51;;;;;;;8.38;7.55;;;;;;;;;;10046047;28;20042;-74
2023/08/16 04:55:43;;;;;;;9.13;8.30;;;;;;;;;;10047347;28;20049;-75
2023/08/16 05:00:35;;;;;;;9.48;8.52;;;;;;;;;;10042672;28;20045;-74
2023/08/16 05:05:29;;;;;;;9.38;8.48;;;;;;;;;;10043549;28;20068;-76
2023/08/16 05:10:22;;;;;;;9.38;8.32;;;;;;;;;;10059004;28;20353;-75
2023/08/16 05:15:14;;;;;;;9.32;8.30;;;;;;;;;;10044343;28;20048;-74
2023/08/16 05:20:08;;;;;;;9.70;8.80;;;;;;;;;;10023590;28;20092;-75
2023/08/16 05:25:00;;;;;;;8.95;8.05;;;;;;;;;;10052419;28;20053;-75
2023/08/16 05:29:52;;;;;;;8.82;8.13;;;;;;;;;;10044840;28;20050;-75
2023/08/16 05:34:43;;;;;;;9.40;8.60;;;;;;;;;;10049948;28;20048;-76
2023/08/16 05:39:35;;;;;;;9.65;8.73;;;;;;;;;;10063599;28;20084;-75
2023/08/16 05:44:27;;;;;;;11.30;9.38;;;;;;;;;;10062966;28;20041;-75
2023/08/16 05:49:19;;;;;;;9.50;8.52;;;;;;;;;;10060650;28;20480;-76
2023/08/16 05:54:11;;;;;;;9.77;8.38;;;;;;;;;;10060142;28;20050;-76
2023/08/16 05:59:03;;;;;;;9.20;8.50;;;;;;;;;;10059214;28;20502;-76
2023/08/16 06:03:55;;;;;;;9.13;8.20;;;;;;;;;;10062489;28;20128;-75
2023/08/16 06:08:47;;;;;;;10.07;9.20;;;;;;;;;;10063416;28;20092;-75
2023/08/16 06:13:40;;;;;;;9.60;8.57;;;;;;;;;;10063405;28;20061;-75
2023/08/16 06:18:32;;;;;;;10.02;9.02;;;;;;;;;;10063280;28;20379;-75
2023/08/16 06:23:24;;;;;;;8.35;7.65;;;;;;;;;;10063386;28;20147;-76
2023/08/16 06:28:16;;;;;;;9.60;8.57;;;;;;;;;;10062705;28;20038;-75
2023/08/16 06:33:09;;;;;;;9.25;8.35;;;;;;;;;;10063305;28;20049;-75
2023/08/16 06:38:02;;;;;;;10.02;9.10;;;;;;;;;;10052843;28;20137;-76
2023/08/16 06:42:54;;;;;;;9.00;8.27;;;;;;;;;;10077226;28;20580;-74
2023/08/16 06:47:47;;;;;;;10.18;9.18;;;;;;;;;;10069956;28;20128;-75
2023/08/16 06:52:42;;;;;;;13.27;9.50;;;;;;;;;;10056577;28;20542;-75
2023/08/16 06:57:34;;;;;;;9.15;8.23;;;;;;;;;;10050022;28;20056;-76
2023/08/16 07:02:26;;;;;;;12.85;8.20;;;;;;;;;;10055360;28;20046;-75
2023/08/16 07:07:22;;;;;;;10.70;8.05;;;;;;;;;;10052645;28;20050;-76
2023/08/16 07:12:14;;;;;;;9.02;8.32;;;;;;;;;;10066781;28;20045;-75
2023/08/16 07:17:06;;;;;;;10.00;8.65;;;;;;;;;;10065504;28;20084;-76
2023/08/16 07:21:58;;;;;;;10.25;8.25;;;;;;;;;;10030801;28;20048;-75
2023/08/16 07:26:50;;;;;;;10.48;8.88;;;;;;;;;;10067833;28;20790;-75
2023/08/16 07:31:42;;;;;;;11.40;10.45;;;;;;;;;;10068015;28;20103;-76
2023/08/16 07:36:33;;;;;;;13.00;10.25;;;;;;;;;;10066689;28;20041;-75
2023/08/16 07:41:25;;;;;;;11.55;10.40;;;;;;;;;;10067472;28;20129;-74
2023/08/16 07:46:17;;;;;;;13.73;9.55;;;;;;;;;;10066885;28;20037;-76
2023/08/16 07:51:10;;;;;;;11.13;10.07;;;;;;;;;;10047258;28;20701;-75
2023/08/16 07:56:02;;;;;;;18.50;12.63;;;;;;;;;;10044052;28;20056;-75
2023/08/16 08:00:54;;;;;;;11.20;10.10;;;;;;;;;;10050613;28;20086;-73
2023/08/16 08:05:47;;;;;;;11.55;9.77;;;;;;;;;;10053127;28;20368;-75
2023/08/16 08:10:43;;;;;;;19.65;10.35;;;;;;;;;;10067036;28;20119;-75
2023/08/16 08:15:35;;;;;;;10.25;9.35;;;;;;;;;;10066840;28;20064;-74
2023/08/16 08:20:27;;;;;;;14.32;10.90;;;;;;;;;;10066118;28;20042;-75
2023/08/16 08:25:19;;;;;;;10.05;9.05;;;;;;;;;;10065673;28;20041;-74
2023/08/16 08:30:11;;;;;;;10.18;9.27;;;;;;;;;;10066193;28;20131;-75
2023/08/16 08:35:04;;;;;;;9.73;8.82;;;;;;;;;;10065476;28;20148;-75
2023/08/16 08:39:56;;;;;;;11.23;10.13;;;;;;;;;;10063014;28;20076;-74
2023/08/16 08:44:49;;;;;;;10.45;9.35;;;;;;;;;;10062965;28;20432;-74
2023/08/16 08:49:41;;;;;;;13.43;9.10;;;;;;;;;;10042736;28;20476;-75
2023/08/16 08:54:33;;;;;;;10.98;9.73;;;;;;;;;;10054463;28;20041;-75
2023/08/16 08:59:27;;;;;;;10.48;9.68;;;;;;;;;;10067007;28;20050;-72
2023/08/16 09:04:20;;;;;;;10.68;9.68;;;;;;;;;;10056288;28;20042;-72
2023/08/16 09:09:12;;;;;;;15.50;8.52;;;;;;;;;;10052509;28;20053;-74
2023/08/16 09:14:05;;;;;;;10.02;9.13;;;;;;;;;;10076818;28;20041;-74
2023/08/16 09:18:57;;;;;;;11.68;9.40;;;;;;;;;;10055295;28;20061;-71
2023/08/16 09:23:55;;;;;;;9.85;9.05;;;;;;;;;;10064296;28;20054;-72
2023/08/16 09:28:56;;;;;;;10.30;9.50;;;;;;;;;;10063077;28;20049;-72
2023/08/16 09:33:54;;;;;;;11.50;8.27;;;;;;;;;;10058537;28;20073;-74
2023/08/16 09:38:47;;;;;;;10.73;9.77;;;;;;;;;;10062717;28;20083;-73
2023/08/16 09:43:38;;;;;;;11.40;9.45;;;;;;;;;;10065803;28;20050;-72
2023/08/16 09:48:31;;;;;;;9.95;7.55;;;;;;;;;;10049414;28;20095;-73
2023/08/16 09:53:23;;;;;;;9.35;8.65;;;;;;;;;;10045464;28;20045;-74
2023/08/16 09:58:28;;;;;;;10.57;7.78;;;;;;;;;;10062958;28;20554;-73
2023/08/16 10:03:20;;;;;;;7.82;7.07;;;;;;;;;;10053594;28;20041;-71
2023/08/16 10:08:13;;;;;;;8.15;7.45;;;;;;;;;;10043549;28;20121;-72
2023/08/16 10:13:07;;;;;;;7.53;6.93;;;;;;;;;;10064021;28;20076;-72
2023/08/16 10:18:03;;;;;;;7.88;7.18;;;;;;;;;;10067369;28;20515;-73
2023/08/16 10:23:00;;;;;;;8.23;7.53;;;;;;;;;;10049508;28;20049;-72
2023/08/16 10:27:57;;;;;;;8.68;7.90;;;;;;;;;;10069052;28;20038;-73
2023/08/16 10:33:17;;;;;;;8.68;7.97;;;;;;;;;;10069621;28;20630;-71
2023/08/16 10:38:10;;;;;;;9.45;8.48;;;;;;;;;;10062709;28;20045;-71
2023/08/16 10:43:06;;;;;;;9.88;8.05;;;;;;;;;;10065604;28;20084;-72
2023/08/16 10:48:08;;;;;;;9.50;8.48;;;;;;;;;;10065421;28;20726;-72
2023/08/16 10:53:00;;;;;;;10.52;8.38;;;;;;;;;;10062964;28;20150;-72
2023/08/16 10:57:52;;;;;;;8.93;8.25;;;;;;;;;;10068304;28;20054;-72
2023/08/16 11:02:48;;;;;;;9.60;8.45;;;;;;;;;;10043133;28;20037;-72
2023/08/16 11:07:43;;;;;;;9.50;8.60;;;;;;;;;;10064298;28;20482;-72
2023/08/16 11:12:34;;;;;;;9.50;8.80;;;;;;;;;;10064096;28;20045;-72
2023/08/16 11:17:27;;;;;;;9.88;9.05;;;;;;;;;;10060068;28;20136;-70
2023/08/16 11:22:21;;;;;;;10.18;8.45;;;;;;;;;;10061489;28;20042;-72
2023/08/16 11:27:24;;;;;;;11.35;8.88;;;;;;;;;;10061698;28;20049;-72
2023/08/16 11:32:36;;;;;;;11.00;8.57;;;;;;;;;;10065093;28;20042;-71
2023/08/16 11:37:28;;;;;;;9.40;8.60;;;;;;;;;;10068270;28;20052;-70
2023/08/16 11:42:20;;;;;;;9.73;9.02;;;;;;;;;;10062725;28;20099;-72
2023/08/16 11:47:12;;;;;;;13.13;9.18;;;;;;;;;;10061080;28;20057;-70
2023/08/16 11:52:04;;;;;;;9.18;8.32;;;;;;;;;;10057246;28;20072;-71
2023/08/16 11:56:55;;;;;;;9.75;8.95;;;;;;;;;;10063994;28;20072;-70
2023/08/16 12:01:47;;;;;;;10.07;8.77;;;;;;;;;;10064338;28;20456;-71
2023/08/16 12:06:49;;;;;;;9.43;8.52;;;;;;;;;;10062301;28;20065;-73
2023/08/16 12:11:41;;;;;;;10.10;9.18;;;;;;;;;;10065483;28;20056;-73
2023/08/16 12:16:33;;;;;;;16.88;9.95;;;;;;;;;;10063921;28;20041;-71
2023/08/16 12:21:25;;;;;;;8.95;8.13;;;;;;;;;;10061223;28;20044;-72
2023/08/16 12:26:17;;;;;;;8.73;7.93;;;;;;;;;;10042811;28;20104;-72
2023/08/16 12:31:12;;;;;;;9.55;8.60;;;;;;;;;;10065254;28;20042;-71
2023/08/16 12:36:04;;;;;;;15.63;10.77;;;;;;;;;;10063458;28;20049;-71
2023/08/16 12:40:56;;;;;;;8.90;8.05;;;;;;;;;;10064071;28;20120;-73
2023/08/16 12:45:48;;;;;;;8.45;7.72;;;;;;;;;;10068745;28;20054;-72
2023/08/16 12:50:40;;;;;;;9.93;8.10;;;;;;;;;;10059588;28;20135;-72
2023/08/16 12:55:32;;;;;;;8.40;7.70;;;;;;;;;;10071576;28;20099;-72
2023/08/16 13:00:27;;;;;;;9.65;7.50;;;;;;;;;;10080924;28;20073;-71
2023/08/16 13:05:18;;;;;;;7.90;7.20;;;;;;;;;;10032751;28;20052;-71
2023/08/16 13:10:24;;;;;;;8.05;7.45;;;;;;;;;;10064613;28;20048;-72
2023/08/16 13:15:21;;;;;;;8.73;7.07;;;;;;;;;;10065002;28;20057;-72
2023/08/16 13:20:16;;;;;;;8.30;7.60;;;;;;;;;;10071104;28;20044;-71
2023/08/16 13:25:10;;;;;;;7.20;6.60;;;;;;;;;;10067616;28;20538;-71
2023/08/16 13:30:05;;;;;;;8.68;6.95;;;;;;;;;;10063096;28;20542;-71
2023/08/16 13:35:08;;;;;;;6.80;6.28;;;;;;;;;;10087782;28;20037;-73
2023/08/16 13:40:03;;;;;;;7.30;6.70;;;;;;;;;;10088107;28;20136;-73
2023/08/16 13:45:10;;;;;;;;;;;;;;;;;;10103291;28;20060;-73
2023/08/16 13:50:05;;;;;;;8.18;6.78;;;;;;;;;;10094780;28;19957;-73
2023/08/16 13:54:57;;;;;;;6.03;5.43;;;;;;;;;;10108926;28;20067;-73
2023/08/16 13:59:49;;;;;;;6.88;6.07;;;;;;;;;;10111611;28;20482;-71
2023/08/16 14:04:41;;;;;;;11.00;6.93;;;;;;;;;;10107181;28;20111;-72
2023/08/16 14:09:33;;;;;;;8.32;6.13;;;;;;;;;;10108680;28;20052;-71
2023/08/16 14:14:25;;;;;;;6.25;5.63;;;;;;;;;;10110554;28;20135;-72
2023/08/16 14:19:17;;;;;;;7.88;5.78;;;;;;;;;;10111091;28;20033;-72
2023/08/16 14:24:09;;;;;;;9.18;6.60;;;;;;;;;;10109734;28;20485;-73
2023/08/16 14:29:04;;;;;;;9.55;6.25;;;;;;;;;;10109638;28;20072;-73
2023/08/16 14:33:56;;;;;;;8.23;5.28;;;;;;;;;;10108240;28;20053;-71
2023/08/16 14:38:48;;;;;;;6.13;5.63;;;;;;;;;;10108814;28;20052;-74
2023/08/16 14:43:50;;;;;;;5.78;5.22;;;;;;;;;;10101650;28;20075;-73
2023/08/16 14:48:42;;;;;;;7.75;5.30;;;;;;;;;;10099065;28;20076;-73
2023/08/16 14:53:34;;;;;;;6.43;5.07;;;;;;;;;;10096764;28;20060;-73
2023/08/16 14:58:26;;;;;;;7.75;5.63;;;;;;;;;;10107725;28;20048;-72
2023/08/16 15:03:18;;;;;;;5.72;5.22;;;;;;;;;;10108916;28;20045;-73
2023/08/16 15:08:12;;;;;;;5.80;5.30;;;;;;;;;;10091963;28;20045;-74
2023/08/16 15:13:04;;;;;;;6.72;5.43;;;;;;;;;;10105798;28;20064;-69
2023/08/16 15:17:56;;;;;;;5.70;5.20;;;;;;;;;;10098133;28;20148;-71
2023/08/16 15:22:48;;;;;;;7.18;5.85;;;;;;;;;;10101768;28;20445;-67
2023/08/16 15:27:40;;;;;;;5.35;4.85;;;;;;;;;;10103231;28;20069;-72
2023/08/16 15:32:32;;;;;;;5.22;4.72;;;;;;;;;;10105636;28;20479;-72
2023/08/16 15:37:23;;;;;;;5.75;5.05;;;;;;;;;;10093824;28;20033;-72
2023/08/16 15:42:15;;;;;;;7.85;5.50;;;;;;;;;;10107775;28;20197;-73
2023/08/16 15:47:07;;;;;;;5.88;5.38;;;;;;;;;;10106628;28;20378;-73
2023/08/16 15:51:59;;;;;;;7.47;5.15;;;;;;;;;;10100937;28;20045;-74
2023/08/16 15:56:51;;;;;;;7.90;5.15;;;;;;;;;;10105118;28;20076;-71
2023/08/16 16:01:43;;;;;;;6.07;5.57;;;;;;;;;;10104969;28;20049;-72
2023/08/16 16:06:35;;;;;;;8.10;4.90;;;;;;;;;;10103596;28;20202;-79
2023/08/16 16:11:28;;;;;;;6.93;5.72;;;;;;;;;;10104495;28;20120;-72
2023/08/16 16:16:20;;;;;;;9.48;5.32;;;;;;;;;;10104157;28;20063;-69
2023/08/16 16:21:13;;;;;;;6.10;5.60;;;;;;;;;;10103970;28;20387;-73
2023/08/16 16:26:07;;;;;;;7.72;5.15;;;;;;;;;;10103593;28;20049;-72
2023/08/16 16:30:59;;;;;;;6.80;5.30;;;;;;;;;;10086501;28;20045;-70
2023/08/16 16:35:51;;;;;;;6.93;5.50;;;;;;;;;;10103722;28;20197;-72
2023/08/16 16:40:43;;;;;;;11.43;6.03;;;;;;;;;;10070604;28;20076;-74
2023/08/16 16:45:35;;;;;;;6.05;5.13;;;;;;;;;;10100726;28;20636;-80
2023/08/16 16:50:27;;;;;;;8.95;5.80;;;;;;;;;;10105489;28;20080;-77
2023/08/16 16:55:19;;;;;;;9.73;5.32;;;;;;;;;;10101963;28;20049;-76
2023/08/16 17:00:11;;;;;;;7.30;5.85;;;;;;;;;;10101433;28;20049;-73
2023/08/16 17:05:03;;;;;;;5.85;5.32;;;;;;;;;;10102602;28;20072;-75
2023/08/16 17:09:55;;;;;;;12.18;5.00;;;;;;;;;;10098465;28;20429;-73
2023/08/16 17:14:47;;;;;;;5.57;5.07;;;;;;;;;;10100948;28;20052;-71
2023/08/16 17:19:39;;;;;;;10.18;6.05;;;;;;;;;;10100872;28;20111;-69
2023/08/16 17:24:31;;;;;;;120.43;38.50;;;;;;;;;;10100679;28;20519;-69
2023/08/16 17:29:22;;;;;;;144.85;49.10;;;;;;;;;;10098862;28;20493;-70
2023/08/16 17:34:17;;;;;;;8.57;7.20;;;;;;;;;;10088985;28;20053;-70
2023/08/16 17:39:09;;;;;;;10.32;7.05;;;;;;;;;;10093409;28;20113;-68
2023/08/16 17:44:02;;;;;;;8.82;5.82;;;;;;;;;;10090419;28;20056;-68
2023/08/16 17:48:54;;;;;;;14.43;9.02;;;;;;;;;;10095607;28;20053;-68
2023/08/16 17:53:46;;;;;;;13.57;6.95;;;;;;;;;;10097947;28;20124;-69
2023/08/16 17:58:39;;;;;;;9.27;7.15;;;;;;;;;;10094260;28;20045;-70
2023/08/16 18:03:32;;;;;;;6.97;6.38;;;;;;;;;;10085875;28;20050;-70
2023/08/16 18:08:24;;;;;;;10.35;6.35;;;;;;;;;;10070037;28;20072;-70
2023/08/16 18:13:16;;;;;;;9.80;6.38;;;;;;;;;;10087361;28;20468;-70
2023/08/16 18:18:08;;;;;;;15.30;9.43;;;;;;;;;;10084881;28;20124;-66
2023/08/16 18:23:00;;;;;;;13.70;7.55;;;;;;;;;;10063217;28;20104;-70
2023/08/16 18:27:52;;;;;;;10.13;6.20;;;;;;;;;;10058995;28;20437;-69
2023/08/16 18:32:46;;;;;;;6.65;6.05;;;;;;;;;;10059105;28;20046;-70
2023/08/16 18:37:38;;;;;;;6.15;5.55;;;;;;;;;;10059223;28;20038;-70
2023/08/16 18:42:30;;;;;;;7.22;6.50;;;;;;;;;;10063791;28;20049;-70
2023/08/16 18:47:21;;;;;;;16.30;11.05;;;;;;;;;;10065879;28;20546;-66
2023/08/16 18:52:14;;;;;;;10.52;9.00;;;;;;;;;;10063467;28;20769;-66
2023/08/16 18:57:07;;;;;;;9.18;6.20;;;;;;;;;;10070513;28;20045;-66
2023/08/16 19:01:58;;;;;;;8.38;6.50;;;;;;;;;;10106796;28;20080;-66
2023/08/16 19:06:50;;;;;;;6.78;6.18;;;;;;;;;;10101888;28;20068;-65
2023/08/16 19:11:42;;;;;;;6.80;5.95;;;;;;;;;;10101361;28;20758;-69
2023/08/16 19:16:34;;;;;;;7.35;6.75;;;;;;;;;;10089898;28;20156;-66
2023/08/16 19:21:26;;;;;;;8.75;7.65;;;;;;;;;;10091697;28;20061;-68
2023/08/16 19:26:18;;;;;;;7.22;6.63;;;;;;;;;;10107026;28;20048;-66
2023/08/16 19:31:09;;;;;;;14.00;7.28;;;;;;;;;;10139072;28;20369;-68
2023/08/16 19:36:01;;;;;;;8.65;6.70;;;;;;;;;;10104200;28;20056;-66
2023/08/16 19:40:53;;;;;;;9.68;8.00;;;;;;;;;;10100894;28;20071;-68
2023/08/16 19:45:49;;;;;;;7.65;6.85;;;;;;;;;;10097886;28;20060;-69
2023/08/16 19:50:43;;;;;;;9.30;8.35;;;;;;;;;;10106518;28;20036;-68
2023/08/16 19:55:35;;;;;;;9.80;6.97;;;;;;;;;;10107597;28;20168;-66
2023/08/16 20:00:27;;;;;;;10.45;6.82;;;;;;;;;;10107054;28;20045;-68
2023/08/16 20:05:19;;;;;;;11.43;7.20;;;;;;;;;;10107262;28;20051;-68
2023/08/16 20:10:12;;;;;;;7.70;7.10;;;;;;;;;;10089265;28;20045;-69
2023/08/16 20:15:06;;;;;;;7.97;7.25;;;;;;;;;;10074605;28;20107;-68
2023/08/16 20:19:58;;;;;;;7.78;7.00;;;;;;;;;;10083895;28;20057;-68
2023/08/16 20:24:51;;;;;;;9.25;7.80;;;;;;;;;;10103507;28;20037;-68
2023/08/16 20:29:43;;;;;;;10.10;7.85;;;;;;;;;;10105046;28;20049;-68
2023/08/16 20:34:50;;;;;;;8.68;7.88;;;;;;;;;;10106161;28;20455;-67
2023/08/16 20:39:42;;;;;;;8.93;7.57;;;;;;;;;;10083124;28;20483;-68
2023/08/16 20:44:34;;;;;;;8.70;7.93;;;;;;;;;;10104697;28;20045;-68
2023/08/16 20:49:26;;;;;;;11.55;7.55;;;;;;;;;;10099700;28;20490;-68
2023/08/16 20:54:18;;;;;;;9.38;7.72;;;;;;;;;;10068975;28;20475;-68
2023/08/16 20:59:09;;;;;;;10.13;7.55;;;;;;;;;;10094630;28;20088;-68
2023/08/16 21:04:01;;;;;;;8.70;7.40;;;;;;;;;;10100147;28;20049;-68
2023/08/16 21:08:53;;;;;;;9.63;7.28;;;;;;;;;;10080920;28;20124;-66
2023/08/16 21:13:46;;;;;;;8.35;7.65;;;;;;;;;;10066755;28;20045;-68
2023/08/16 21:18:38;;;;;;;8.52;7.82;;;;;;;;;;10062625;28;20045;-67
2023/08/16 21:23:30;;;;;;;9.23;8.32;;;;;;;;;;10059121;28;20049;-67
2023/08/16 21:28:22;;;;;;;9.23;8.40;;;;;;;;;;10080093;28;20128;-68
2023/08/16 21:33:13;;;;;;;13.98;7.35;;;;;;;;;;10084342;28;20481;-68
2023/08/16 21:38:06;;;;;;;8.63;7.72;;;;;;;;;;10098642;28;20099;-68
2023/08/16 21:42:58;;;;;;;9.18;8.38;;;;;;;;;;10095565;28;20050;-67
2023/08/16 21:47:50;;;;;;;8.70;7.90;;;;;;;;;;10087646;28;20064;-67
2023/08/16 21:52:42;;;;;;;9.50;8.38;;;;;;;;;;10095679;28;20140;-68
2023/08/16 21:57:34;;;;;;;10.55;9.48;;;;;;;;;;10095807;28;20061;-70
2023/08/16 22:02:26;;;;;;;15.23;8.50;;;;;;;;;;10084758;28;20695;-68
2023/08/16 22:07:18;;;;;;;10.60;8.80;;;;;;;;;;10099769;28;20533;-70
2023/08/16 22:12:10;;;;;;;10.57;9.40;;;;;;;;;;10071543;28;20083;-70
2023/08/16 22:17:01;;;;;;;11.45;9.05;;;;;;;;;;10105309;28;20255;-70
2023/08/16 22:21:53;;;;;;;10.57;9.68;;;;;;;;;;10104654;28;20040;-70
2023/08/16 22:26:45;;;;;;;10.02;9.02;;;;;;;;;;10103986;28;20085;-71
2023/08/16 22:31:37;;;;;;;12.95;10.13;;;;;;;;;;10101611;28;20041;-70
2023/08/16 22:36:29;;;;;;;11.20;10.23;;;;;;;;;;10095334;28;20048;-69
2023/08/16 22:41:21;;;;;;;10.07;9.23;;;;;;;;;;10108669;28;20355;-66
2023/08/16 22:46:13;;;;;;;10.88;9.25;;;;;;;;;;10109263;28;20115;-69
2023/08/16 22:51:05;;;;;;;14.50;11.35;;;;;;;;;;10109527;28;20521;-66
2023/08/16 22:55:58;;;;;;;11.20;10.07;;;;;;;;;;10107608;28;20110;-69
2023/08/16 23:00:49;;;;;;;11.70;10.60;;;;;;;;;;10109195;28;20054;-70
2023/08/16 23:05:41;;;;;;;11.68;10.50;;;;;;;;;;10106990;28;20056;-69
2023/08/16 23:10:33;;;;;;;11.82;10.70;;;;;;;;;;10106121;28;20524;-68
2023/08/16 23:15:25;;;;;;;14.13;10.52;;;;;;;;;;10106604;28;20360;-70
2023/08/16 23:20:17;;;;;;;12.00;10.93;;;;;;;;;;10105600;28;20536;-70
2023/08/16 23:25:09;;;;;;;11.68;10.57;;;;;;;;;;10105152;28;20147;-69
2023/08/16 23:30:03;;;;;;;12.52;11.30;;;;;;;;;;10104233;28;20047;-69
2023/08/16 23:34:55;;;;;;;12.07;10.90;;;;;;;;;;10105403;28;20041;-70
2023/08/16 23:39:47;;;;;;;30.75;12.23;;;;;;;;;;10107909;28;20099;-70
2023/08/16 23:44:39;;;;;;;11.93;10.77;;;;;;;;;;10104404;28;20124;-68
2023/08/16 23:49:34;;;;;;;14.25;12.77;;;;;;;;;;10100493;28;20036;-68
2023/08/16 23:54:27;;;;;;;12.15;10.95;;;;;;;;;;10102632;28;20037;-68
2023/08/16 23:59:19;;;;;;;12.40;11.20;;;;;;;;;;10078455;28;20068;-68
